Time;durP1;ratioP1;P1;durP2;ratioP2;P2;SDS_P1;SDS_P2;PMS_P1;PMS_P2;Temp;Humidity;BMP_temperature;BMP_pressure;BME280_temperature;BME280_humidity;BME280_pressure;Samples;Min_cycle;Max_cycle;Signal;HPM_P1;HPM_P2
2023/01/19 09:18:35;;;;;;;9.65;2.85;;;1.90;99.90;;;;;;5109871;27;20363;-68
2023/01/19 09:21:01;;;;;;;5.85;2.53;;;1.90;99.90;;;;;;5091753;28;20031;-68
2023/01/19 09:23:27;;;;;;;9.07;3.20;;;2.00;99.90;;;;;;5127863;28;20633;-70
2023/01/19 09:25:58;;;;;;;10.48;3.25;;;2.00;99.90;;;;;;5126121;27;20111;-68
2023/01/19 09:28:24;;;;;;;11.32;3.60;;;2.10;99.90;;;;;;5110040;28;20065;-72
2023/01/19 09:30:50;;;;;;;17.92;3.63;;;2.10;99.90;;;;;;5109366;28;20050;-71
2023/01/19 09:33:17;;;;;;;10.68;3.38;;;2.10;99.90;;;;;;5091788;28;20039;-68
2023/01/19 09:35:44;;;;;;;8.85;3.28;;;2.00;99.90;;;;;;5109610;28;20481;-69
2023/01/19 09:38:11;;;;;;;8.13;3.90;;;2.00;99.90;;;;;;5096840;28;20080;-67
2023/01/19 09:40:42;;;;;;;8.05;3.88;;;2.00;99.90;;;;;;5106258;28;20115;-67
2023/01/19 09:43:43;;;;;;;9.23;3.42;;;2.00;99.90;;;;;;5107314;28;20065;-66
2023/01/19 09:46:17;;;;;;;10.82;3.83;;;2.00;99.90;;;;;;5087149;28;20042;-66
2023/01/19 09:49:03;;;;;;;7.88;3.63;;;2.00;99.90;;;;;;5110699;28;20057;-67
2023/01/19 09:51:35;;;;;;;10.40;3.85;;;2.00;99.90;;;;;;5128380;27;20047;-65
2023/01/19 09:54:13;;;;;;;;;;;2.00;99.90;;;;;;5129855;28;20379;-67
2023/01/19 09:56:39;;;;;;;10.98;4.50;;;2.00;99.90;;;;;;5112428;28;19921;-67
2023/01/19 09:59:31;;;;;;;11.13;4.32;;;2.10;99.90;;;;;;5107980;28;20019;-69
2023/01/19 10:02:41;;;;;;;11.07;4.57;;;2.10;99.90;;;;;;5111909;28;20016;-67
2023/01/19 10:05:24;;;;;;;12.00;4.60;;;2.10;99.90;;;;;;5104301;28;20409;-69
2023/01/19 10:08:11;;;;;;;16.17;5.32;;;2.10;99.90;;;;;;5090593;28;20016;-68
2023/01/19 10:10:41;;;;;;;14.15;4.63;;;2.20;99.90;;;;;;5109209;28;20091;-67
2023/01/19 10:13:35;;;;;;;16.27;5.03;;;2.30;99.90;;;;;;5090247;28;20020;-67
2023/01/19 10:16:25;;;;;;;9.98;5.13;;;2.30;99.90;;;;;;5123460;27;20534;-69
2023/01/19 10:18:54;;;;;;;15.77;5.70;;;2.40;99.90;;;;;;5129980;28;20031;-68
2023/01/19 10:21:42;;;;;;;20.67;6.82;;;2.50;99.90;;;;;;5129094;27;20025;-67
2023/01/19 10:24:17;;;;;;;15.82;4.40;;;2.60;99.90;;;;;;5129717;28;20059;-68
2023/01/19 10:26:48;;;;;;;13.98;5.82;;;2.70;99.90;;;;;;5128819;27;20023;-68
2023/01/19 10:29:23;;;;;;;14.43;5.32;;;2.70;99.90;;;;;;5117236;28;20426;-67
2023/01/19 10:31:51;;;;;;;14.02;5.22;;;2.80;99.90;;;;;;5095095;28;20032;-67
2023/01/19 10:34:22;;;;;;;15.18;4.90;;;2.90;99.90;;;;;;5094884;28;20395;-67
2023/01/19 10:36:49;;;;;;;16.10;4.82;;;2.90;99.90;;;;;;5112720;28;20085;-67
2023/01/19 10:39:17;;;;;;;13.98;4.78;;;2.90;99.90;;;;;;5116081;28;20051;-67
2023/01/19 10:41:50;;;;;;;11.20;4.53;;;3.00;99.90;;;;;;5096436;28;20460;-67
2023/01/19 10:44:28;;;;;;;7.85;3.65;;;3.00;99.90;;;;;;5110336;28;20016;-68
2023/01/19 10:46:59;;;;;;;15.15;4.40;;;3.00;99.90;;;;;;5097294;28;20012;-68
2023/01/19 10:49:33;;;;;;;9.73;4.03;;;3.00;99.90;;;;;;5108127;28;20483;-63
2023/01/19 10:51:59;;;;;;;13.77;4.68;;;2.90;99.90;;;;;;5091828;28;20021;-64
2023/01/19 10:54:26;;;;;;;9.57;4.35;;;3.00;99.90;;;;;;5093112;28;20028;-64
2023/01/19 10:57:02;;;;;;;8.27;3.88;;;3.00;99.90;;;;;;5093639;28;20032;-65
2023/01/19 10:59:35;;;;;;;10.90;3.88;;;3.00;99.90;;;;;;5094051;28;20100;-64
2023/01/19 11:02:19;;;;;;;6.90;3.47;;;3.00;99.90;;;;;;5093417;28;20008;-64
2023/01/19 11:04:51;;;;;;;14.15;4.25;;;3.10;99.90;;;;;;5095762;28;20032;-64
2023/01/19 11:07:31;;;;;;;7.75;3.67;;;3.00;99.90;;;;;;5093762;28;20055;-64
2023/01/19 11:10:21;;;;;;;6.75;3.22;;;3.10;99.90;;;;;;5093339;28;20016;-66
2023/01/19 11:12:54;;;;;;;10.40;3.10;;;3.10;99.90;;;;;;5108685;28;21111;-64
2023/01/19 11:15:43;;;;;;;11.55;2.78;;;3.10;99.90;;;;;;5114063;28;20020;-65
2023/01/19 11:18:36;;;;;;;6.00;2.75;;;3.20;99.90;;;;;;5085364;28;20131;-64
2023/01/19 11:21:15;;;;;;;13.55;2.78;;;3.30;99.90;;;;;;5075649;28;20020;-64
2023/01/19 11:23:49;;;;;;;9.52;3.13;;;3.40;99.90;;;;;;5093869;28;20052;-67
2023/01/19 11:26:40;;;;;;;15.18;2.90;;;3.40;99.90;;;;;;5100997;28;20027;-69
2023/01/19 11:29:20;;;;;;;10.13;2.92;;;3.40;99.90;;;;;;5080284;28;20349;-69
2023/01/19 17:06:29;;;;;;;17.25;9.32;;;0.80;99.90;;;;;;4470348;27;17811563;-67
2023/01/19 17:08:55;;;;;;;16.13;8.93;;;0.80;99.90;;;;;;5111842;28;20120;-63
2023/01/19 17:11:29;;;;;;;25.83;9.93;;;0.90;99.90;;;;;;5129307;28;20020;-65
2023/01/19 17:13:58;;;;;;;18.20;10.63;;;1.00;99.90;;;;;;5127434;28;20037;-66
2023/01/19 17:16:24;;;;;;;18.15;10.30;;;1.10;99.90;;;;;;5089867;28;20027;-65
2023/01/19 17:18:50;;;;;;;17.67;10.65;;;1.20;99.90;;;;;;5109295;28;20028;-64
2023/01/19 17:21:18;;;;;;;23.65;12.10;;;1.20;99.90;;;;;;5108783;28;20027;-65
2023/01/19 17:23:46;;;;;;;22.23;11.55;;;1.30;99.90;;;;;;5120794;28;20084;-65
2023/01/19 17:26:12;;;;;;;20.65;11.73;;;1.30;99.90;;;;;;5112943;28;20035;-65
2023/01/19 17:28:38;;;;;;;24.98;13.57;;;1.30;99.90;;;;;;5128582;28;20023;-65
2023/01/19 17:31:15;;;;;;;29.25;14.85;;;1.30;99.90;;;;;;5111159;28;20387;-65
2023/01/19 17:33:48;;;;;;;28.70;15.48;;;1.30;99.90;;;;;;5128664;28;20024;-65
2023/01/19 17:36:21;;;;;;;24.48;14.45;;;1.30;99.90;;;;;;5129516;28;20028;-65
2023/01/19 17:38:48;;;;;;;25.10;13.52;;;1.30;99.90;;;;;;5128766;28;20015;-64
2023/01/19 17:41:22;;;;;;;25.05;14.63;;;1.30;99.90;;;;;;5127693;28;20480;-64
2023/01/19 17:43:51;;;;;;;25.90;13.68;;;1.30;99.90;;;;;;5121410;28;20024;-66
2023/01/19 17:46:19;;;;;;;28.20;14.82;;;1.30;99.90;;;;;;5108547;28;20031;-64
2023/01/19 17:48:50;;;;;;;28.38;15.60;;;1.30;99.90;;;;;;5107848;28;20487;-64
2023/01/19 17:51:16;;;;;;;25.15;14.63;;;1.20;99.90;;;;;;5099682;28;20094;-64
2023/01/19 17:53:41;;;;;;;28.38;15.65;;;1.30;99.90;;;;;;5105876;28;20037;-64
2023/01/19 17:56:14;;;;;;;27.77;15.35;;;1.20;99.90;;;;;;5123880;28;20054;-64
2023/01/19 17:58:40;;;;;;;34.05;17.10;;;1.20;99.90;;;;;;5128968;28;20309;-65
2023/01/19 18:01:12;;;;;;;30.58;15.40;;;1.20;99.90;;;;;;5110650;28;20047;-64
2023/01/19 18:03:38;;;;;;;26.17;15.85;;;1.10;99.90;;;;;;5128069;28;20176;-64
2023/01/19 18:06:04;;;;;;;22.83;13.82;;;1.10;99.90;;;;;;5129422;28;20046;-64
2023/01/19 18:08:31;;;;;;;27.98;14.10;;;1.10;99.90;;;;;;5129243;28;20464;-65
2023/01/19 18:10:58;;;;;;;20.55;11.70;;;1.10;99.90;;;;;;5129212;28;20024;-65
2023/01/19 18:13:25;;;;;;;23.60;13.40;;;1.00;99.90;;;;;;5128885;28;20108;-66
2023/01/19 18:15:53;;;;;;;23.15;12.95;;;1.00;99.90;;;;;;5125722;28;20391;-66
2023/01/19 18:18:19;;;;;;;23.50;14.25;;;1.00;99.90;;;;;;5109253;28;20732;-64
2023/01/19 18:20:44;;;;;;;25.38;13.25;;;1.00;99.90;;;;;;5108276;28;20432;-64
2023/01/19 18:23:11;;;;;;;24.13;12.68;;;1.00;99.90;;;;;;5103939;28;20091;-64
2023/01/19 18:25:36;;;;;;;28.08;13.18;;;0.90;99.90;;;;;;5103796;28;20489;-65
2023/01/19 18:28:04;;;;;;;29.27;15.13;;;0.90;99.90;;;;;;5089304;28;20075;-65
2023/01/19 18:30:29;;;;;;;29.90;15.07;;;0.90;99.90;;;;;;5108704;28;20110;-67
2023/01/19 18:32:55;;;;;;;30.92;15.57;;;0.90;99.90;;;;;;5115345;28;20055;-66
2023/01/19 18:35:21;;;;;;;26.33;14.25;;;0.90;99.90;;;;;;5113795;28;20031;-67
2023/01/19 18:37:47;;;;;;;35.58;17.08;;;0.90;99.90;;;;;;5114081;28;20039;-65
2023/01/19 18:40:13;;;;;;;37.55;17.13;;;0.90;99.90;;;;;;5115115;28;20034;-67
2023/01/19 18:42:38;;;;;;;34.35;16.80;;;0.90;99.90;;;;;;5114808;28;20041;-67
2023/01/19 18:45:04;;;;;;;40.13;17.98;;;0.90;99.90;;;;;;5114348;28;20039;-67
2023/01/19 18:47:31;;;;;;;37.20;17.05;;;0.90;99.90;;;;;;5115015;28;20019;-69
2023/01/19 18:49:57;;;;;;;37.70;17.15;;;1.00;99.90;;;;;;5114157;28;20099;-70
2023/01/19 18:52:23;;;;;;;39.03;17.17;;;0.90;99.90;;;;;;5095921;28;20472;-67
2023/01/19 18:54:48;;;;;;;39.35;19.25;;;0.90;99.90;;;;;;5114946;28;20047;-64
2023/01/19 18:57:16;;;;;;;40.95;17.98;;;0.90;99.90;;;;;;5114551;28;20023;-67
2023/01/19 18:59:42;;;;;;;35.58;17.23;;;0.90;99.90;;;;;;5114494;28;20016;-65
2023/01/19 19:02:12;;;;;;;35.35;15.68;;;0.90;99.90;;;;;;5114844;28;20080;-66
2023/01/19 19:04:38;;;;;;;42.97;16.90;;;0.80;99.90;;;;;;5114105;28;20095;-70
2023/01/19 19:07:04;;;;;;;41.45;18.50;;;0.90;99.90;;;;;;5113883;28;20051;-70
2023/01/19 19:09:29;;;;;;;39.00;18.08;;;0.80;99.90;;;;;;5096048;28;20108;-66
2023/01/19 19:11:55;;;;;;;35.50;17.48;;;0.80;99.90;;;;;;5113470;28;20023;-59
2023/01/19 19:14:20;;;;;;;41.28;19.52;;;0.80;99.90;;;;;;5113771;28;20557;-61
2023/01/19 19:16:46;;;;;;;43.53;19.75;;;0.80;99.90;;;;;;5095494;28;20114;-58
2023/01/19 19:19:14;;;;;;;49.30;19.90;;;0.80;99.90;;;;;;5112286;28;20107;-62
2023/01/19 19:21:40;;;;;;;47.45;21.10;;;0.80;99.90;;;;;;5112508;28;20127;-61
2023/01/19 19:24:06;;;;;;;54.10;22.25;;;0.80;99.90;;;;;;5112918;28;20163;-61
2023/01/19 19:26:32;;;;;;;54.55;21.80;;;0.80;99.90;;;;;;5112284;28;20019;-63
2023/01/19 19:28:59;;;;;;;41.33;18.25;;;0.80;99.90;;;;;;5113292;28;20049;-61
2023/01/19 19:31:26;;;;;;;43.42;20.08;;;0.80;99.90;;;;;;5096268;28;20507;-62
2023/01/19 19:33:53;;;;;;;48.28;20.30;;;0.80;99.90;;;;;;5095742;28;20413;-63
2023/01/19 19:36:20;;;;;;;49.67;21.00;;;0.80;99.90;;;;;;5096013;28;20071;-62
2023/01/19 19:38:47;;;;;;;48.78;21.17;;;0.80;99.90;;;;;;5094307;28;20024;-63
2023/01/19 19:41:19;;;;;;;44.58;19.05;;;0.80;99.90;;;;;;5095879;28;20035;-63
2023/01/19 19:43:44;;;;;;;;;;;0.80;99.90;;;;;;5090812;28;20020;-62
2023/01/19 19:46:12;;;;;;;46.13;19.30;;;0.90;99.90;;;;;;5093567;28;20424;-62
2023/01/19 19:48:38;;;;;;;44.83;19.48;;;0.90;99.90;;;;;;5074903;28;20103;-63
2023/01/19 19:51:08;;;;;;;47.78;20.13;;;0.90;99.90;;;;;;5093996;28;20020;-62
2023/01/19 19:53:36;;;;;;;49.13;20.40;;;0.90;99.90;;;;;;5093688;28;20024;-63
2023/01/19 19:56:03;;;;;;;50.33;20.65;;;0.90;99.90;;;;;;5079333;28;20110;-62
2023/01/19 19:58:29;;;;;;;54.42;20.77;;;0.90;99.90;;;;;;5112227;28;20035;-62
2023/01/19 20:00:55;;;;;;;46.40;18.73;;;0.80;99.90;;;;;;5095582;28;20485;-62
2023/01/19 20:03:25;;;;;;;42.15;19.48;;;0.90;99.90;;;;;;5112822;28;20043;-61
2023/01/19 20:05:50;;;;;;;49.60;20.20;;;0.80;99.90;;;;;;5113374;28;20048;-62
2023/01/19 20:08:16;;;;;;;45.20;19.23;;;0.80;99.90;;;;;;5113284;28;20080;-63
2023/01/19 20:10:42;;;;;;;46.03;20.27;;;0.80;99.90;;;;;;5114068;28;20030;-63
2023/01/19 20:13:07;;;;;;;48.63;18.50;;;0.70;99.90;;;;;;5114017;28;20027;-63
2023/01/19 20:15:37;;;;;;;37.92;18.38;;;0.70;99.90;;;;;;5113297;28;20045;-64
2023/01/19 20:18:05;;;;;;;37.00;17.23;;;0.70;99.90;;;;;;5114038;28;20020;-63
2023/01/19 20:20:31;;;;;;;53.58;19.90;;;0.70;99.90;;;;;;5113242;28;20076;-64
2023/01/19 20:22:58;;;;;;;43.25;18.17;;;0.70;99.90;;;;;;5112690;28;20020;-63
2023/01/19 20:25:24;;;;;;;37.38;17.10;;;0.60;99.90;;;;;;5113625;28;20088;-63
2023/01/19 20:27:49;;;;;;;42.38;19.55;;;0.60;99.90;;;;;;5113528;28;20023;-62
2023/01/19 20:30:15;;;;;;;60.03;21.60;;;0.70;99.90;;;;;;5113178;28;20392;-63
2023/01/19 20:32:40;;;;;;;47.40;21.02;;;0.80;99.90;;;;;;5095187;28;20112;-63
2023/01/19 20:35:06;;;;;;;47.50;20.52;;;0.80;99.90;;;;;;5113213;28;20106;-62
2023/01/19 20:37:32;;;;;;;51.60;19.95;;;0.80;99.90;;;;;;5112818;28;20095;-63
2023/01/19 20:39:57;;;;;;;49.78;20.80;;;0.80;99.90;;;;;;5094231;28;20031;-63
2023/01/19 20:42:23;;;;;;;45.25;18.58;;;0.80;99.90;;;;;;5113387;28;20047;-62
2023/01/19 20:44:49;;;;;;;44.92;18.65;;;0.80;99.90;;;;;;5112936;28;20361;-62
2023/01/19 20:47:14;;;;;;;45.22;19.50;;;0.80;99.90;;;;;;5113349;28;20020;-62
2023/01/19 20:49:41;;;;;;;46.17;19.05;;;0.90;99.90;;;;;;5113657;28;20027;-62
2023/01/19 20:52:06;;;;;;;40.25;17.98;;;0.90;99.90;;;;;;5093520;28;20024;-63
2023/01/19 20:54:32;;;;;;;42.95;19.25;;;0.90;99.90;;;;;;5112820;28;20068;-64
2023/01/19 20:56:58;;;;;;;40.05;17.45;;;0.90;99.90;;;;;;5113550;28;20369;-63
2023/01/19 20:59:25;;;;;;;48.58;18.27;;;0.90;99.90;;;;;;5112584;28;20045;-62
2023/01/19 21:01:51;;;;;;;35.00;17.35;;;0.90;99.90;;;;;;5101579;28;20032;-62
2023/01/19 21:04:17;;;;;;;39.35;15.48;;;0.90;99.90;;;;;;5112683;28;20019;-63
2023/01/19 21:06:43;;;;;;;35.05;14.98;;;0.90;99.90;;;;;;5093917;28;20399;-62
2023/01/19 21:09:09;;;;;;;33.08;15.75;;;0.90;99.90;;;;;;5112463;28;20103;-63
2023/01/19 21:11:37;;;;;;;33.47;13.60;;;0.90;99.90;;;;;;5111811;28;20060;-64
2023/01/19 21:14:03;;;;;;;32.05;12.80;;;0.90;99.90;;;;;;5113049;28;20019;-62
2023/01/19 21:16:31;;;;;;;31.30;14.25;;;0.90;99.90;;;;;;5112709;28;20046;-63
2023/01/19 21:18:57;;;;;;;31.48;14.20;;;0.90;99.90;;;;;;5093986;28;20128;-64
2023/01/19 21:21:23;;;;;;;31.42;13.45;;;0.90;99.90;;;;;;5112538;28;20437;-64
2023/01/19 21:23:49;;;;;;;31.88;14.43;;;0.90;99.90;;;;;;5112822;28;20028;-63
2023/01/19 21:26:15;;;;;;;31.33;13.40;;;0.90;99.90;;;;;;5111867;28;20034;-64
2023/01/19 21:28:40;;;;;;;27.10;13.25;;;0.90;99.90;;;;;;5109557;28;20124;-61
2023/01/19 21:31:11;;;;;;;32.30;12.77;;;0.80;99.90;;;;;;5074796;28;20092;-64
2023/01/19 21:33:38;;;;;;;25.50;11.68;;;0.80;99.90;;;;;;5091917;28;20024;-61
